createdAt,value
2023-05-17T00:01:00.011Z,6.47
2023-05-17T00:03:30.738Z,8.58
2023-05-17T00:06:03.542Z,5.90
2023-05-17T00:08:35.537Z,7.17
2023-05-17T00:11:05.782Z,6.33
2023-05-17T00:13:34.620Z,11.45
2023-05-17T00:16:05.932Z,3.60
2023-05-17T00:18:36.691Z,4.45
2023-05-17T00:21:08.588Z,2.92
2023-05-17T00:23:37.267Z,3.50
2023-05-17T00:26:06.087Z,4.20
2023-05-17T00:28:34.846Z,3.72
2023-05-17T00:31:03.473Z,3.12
2023-05-17T00:33:32.084Z,2.65
2023-05-17T00:36:00.830Z,5.35
2023-05-17T00:38:52.776Z,5.05
2023-05-17T00:41:21.650Z,4.33
2023-05-17T00:43:52.135Z,4.12
2023-05-17T00:46:23.836Z,3.15
2023-05-17T00:48:55.547Z,5.90
2023-05-17T00:51:24.403Z,3.77
2023-05-17T00:53:53.737Z,3.83
2023-05-17T00:56:25.275Z,7.10
2023-05-17T00:58:54.826Z,3.45
2023-05-17T01:01:23.470Z,4.72
2023-05-17T01:03:52.691Z,3.92
2023-05-17T01:06:21.573Z,4.97
2023-05-17T01:08:50.211Z,3.20
2023-05-17T01:11:46.069Z,7.58
2023-05-17T01:14:20.750Z,5.20
2023-05-17T01:16:56.738Z,3.45
2023-05-17T01:19:40.395Z,6.28
2023-05-17T01:22:30.257Z,4.87
2023-05-17T01:25:22.337Z,4.55
2023-05-17T01:27:58.168Z,5.30
2023-05-17T01:30:30.400Z,3.33
2023-05-17T01:33:00.171Z,4.03
2023-05-17T01:35:29.952Z,2.47
2023-05-17T01:38:03.740Z,5.00
2023-05-17T01:40:39.002Z,4.20
2023-05-17T01:43:44.936Z,4.10
2023-05-17T01:46:20.020Z,5.35
2023-05-17T01:49:08.321Z,4.33
2023-05-17T01:51:42.598Z,3.27
2023-05-17T01:54:20.209Z,5.15
2023-05-17T01:56:53.443Z,7.15
2023-05-17T01:59:30.775Z,12.15
2023-05-17T02:05:04.967Z,6.70
2023-05-17T02:07:33.681Z,4.42
2023-05-17T02:10:07.117Z,4.67
2023-05-17T02:12:40.985Z,7.90
2023-05-17T02:15:18.793Z,5.37
2023-05-17T02:17:57.602Z,4.50
2023-05-17T02:20:29.583Z,6.83
2023-05-17T02:22:58.418Z,5.42
2023-05-17T02:25:28.949Z,9.63
2023-05-17T02:28:02.391Z,9.40
2023-05-17T02:30:38.656Z,7.00
2023-05-17T02:33:16.018Z,5.85
2023-05-17T02:36:15.592Z,11.00
2023-05-17T02:38:50.036Z,9.90
2023-05-17T02:41:23.004Z,8.15
2023-05-17T02:43:59.284Z,12.53
2023-05-17T02:46:41.017Z,8.00
2023-05-17T02:49:12.586Z,5.55
2023-05-17T02:52:04.904Z,12.93
2023-05-17T02:57:33.116Z,8.65
2023-05-17T03:00:07.519Z,13.32
2023-05-17T03:02:31.830Z,7.95
2023-05-17T03:05:00.535Z,7.12
2023-05-17T03:07:29.104Z,5.47
2023-05-17T03:09:57.736Z,8.13
2023-05-17T03:12:27.843Z,9.28
2023-05-17T03:14:56.592Z,7.10
2023-05-17T03:17:25.323Z,8.38
2023-05-17T03:19:54.109Z,6.65
2023-05-17T03:22:22.769Z,9.85
2023-05-17T03:24:51.405Z,5.50
2023-05-17T03:27:20.134Z,7.25
2023-05-17T03:29:48.813Z,7.95
2023-05-17T03:32:17.457Z,8.48
2023-05-17T03:34:46.083Z,7.50
2023-05-17T03:39:54.042Z,10.38
2023-05-17T03:42:22.739Z,9.48
2023-05-17T03:44:51.385Z,9.30
2023-05-17T03:47:21.696Z,10.50
2023-05-17T03:49:51.301Z,8.05
2023-05-17T03:52:22.806Z,9.48
2023-05-17T03:54:52.096Z,6.95
2023-05-17T03:57:22.130Z,9.95
2023-05-17T03:59:50.765Z,9.75
2023-05-17T04:02:20.714Z,14.10
2023-05-17T04:04:53.139Z,5.30
2023-05-17T04:07:22.031Z,11.15
2023-05-17T04:09:50.902Z,16.87
2023-05-17T04:12:27.455Z,13.88
2023-05-17T04:15:00.301Z,16.07
2023-05-17T04:17:37.778Z,12.85
2023-05-17T04:26:00.856Z,12.63
2023-05-17T04:34:17.503Z,16.17
2023-05-17T04:36:46.394Z,15.90
2023-05-17T04:39:15.193Z,17.50
2023-05-17T04:41:43.835Z,13.25
2023-05-17T04:44:12.551Z,22.45
2023-05-17T04:46:42.044Z,14.75
2023-05-17T04:49:11.420Z,16.48
2023-05-17T04:51:40.141Z,14.93
2023-05-17T04:54:08.792Z,16.00
2023-05-17T04:56:37.746Z,16.67
2023-05-17T04:59:06.388Z,18.85
2023-05-17T05:01:35.322Z,18.67
2023-05-17T05:04:05.800Z,17.50
2023-05-17T05:06:35.432Z,18.73
2023-05-17T05:09:05.488Z,16.93
2023-05-17T05:11:34.100Z,16.70
2023-05-17T05:14:02.795Z,19.90
2023-05-17T05:16:31.428Z,21.35
2023-05-17T05:19:00.257Z,16.20
2023-05-17T05:21:29.122Z,13.58
2023-05-17T05:23:57.756Z,17.05
2023-05-17T05:26:26.490Z,16.77
2023-05-17T05:28:56.671Z,21.07
2023-05-17T05:31:25.417Z,19.17
2023-05-17T05:33:54.155Z,23.25
2023-05-17T05:36:22.819Z,20.37
2023-05-17T05:38:53.129Z,23.18
2023-05-17T05:41:21.814Z,17.27
2023-05-17T05:43:50.470Z,21.07
2023-05-17T05:46:19.191Z,21.65
2023-05-17T05:48:47.854Z,36.40
2023-05-17T05:51:16.454Z,35.83
2023-05-17T05:53:45.094Z,37.20
2023-05-17T05:56:13.765Z,36.73
2023-05-17T05:58:42.395Z,37.40
2023-05-17T06:01:11.500Z,36.28
2023-05-17T06:03:40.156Z,32.13
2023-05-17T06:06:11.010Z,30.37
2023-05-17T06:08:39.676Z,25.68
2023-05-17T06:11:08.391Z,29.15
2023-05-17T06:13:37.011Z,26.02
2023-05-17T06:16:07.597Z,23.35
2023-05-17T06:18:36.321Z,21.75
2023-05-17T06:21:06.744Z,23.83
2023-05-17T06:23:35.354Z,22.82
2023-05-17T06:26:03.987Z,23.92
2023-05-17T06:28:32.657Z,20.75
2023-05-17T06:31:01.276Z,18.90
2023-05-17T06:33:29.983Z,20.95
2023-05-17T06:35:58.985Z,20.23
2023-05-17T06:38:27.858Z,21.82
2023-05-17T06:40:58.504Z,19.32
2023-05-17T06:43:27.231Z,17.67
2023-05-17T06:45:55.889Z,17.02
2023-05-17T06:48:24.742Z,13.15
2023-05-17T06:50:53.502Z,15.72
2023-05-17T06:53:22.222Z,11.93
2023-05-17T06:55:51.041Z,14.90
2023-05-17T06:58:20.707Z,14.33
2023-05-17T07:00:49.344Z,17.55
2023-05-17T07:03:18.096Z,9.95
2023-05-17T07:05:46.863Z,13.62
2023-05-17T07:08:15.678Z,12.45
2023-05-17T07:10:44.589Z,11.70
2023-05-17T07:13:13.241Z,12.37
2023-05-17T07:15:41.966Z,13.20
2023-05-17T07:18:10.713Z,15.68
2023-05-17T07:20:39.358Z,15.05
2023-05-17T07:23:08.011Z,17.15
2023-05-17T07:25:38.326Z,13.88
2023-05-17T07:28:06.973Z,9.63
2023-05-17T07:30:35.910Z,11.00
2023-05-17T07:33:04.693Z,12.88
2023-05-17T07:35:33.372Z,16.37
2023-05-17T07:38:02.013Z,12.47
2023-05-17T07:40:30.725Z,11.73
2023-05-17T07:43:00.691Z,17.55
2023-05-17T07:45:29.939Z,11.43
2023-05-17T07:47:59.104Z,11.60
2023-05-17T07:50:27.906Z,14.55
2023-05-17T07:52:56.579Z,8.85
2023-05-17T07:55:25.387Z,6.80
2023-05-17T07:57:54.124Z,12.07
2023-05-17T08:00:24.319Z,13.32
2023-05-17T08:02:53.135Z,12.43
2023-05-17T08:05:21.874Z,6.62
2023-05-17T08:07:53.267Z,9.18
2023-05-17T08:10:21.982Z,9.75
2023-05-17T08:12:50.680Z,12.28
2023-05-17T08:15:19.385Z,10.55
2023-05-17T08:17:48.093Z,9.60
2023-05-17T08:20:17.499Z,6.78
2023-05-17T08:22:46.142Z,11.45
2023-05-17T08:25:15.322Z,9.35
2023-05-17T08:27:47.179Z,9.50
2023-05-17T08:30:28.209Z,8.97
2023-05-17T08:32:55.220Z,6.65
2023-05-17T08:35:29.082Z,9.70
2023-05-17T08:37:58.481Z,8.68
2023-05-17T08:40:30.698Z,13.38
2023-05-17T08:43:03.816Z,16.17
2023-05-17T08:45:33.110Z,9.33
2023-05-17T08:48:05.253Z,9.73
2023-05-17T08:50:35.946Z,13.75
2023-05-17T08:53:12.180Z,9.90
2023-05-17T08:55:46.946Z,6.67
2023-05-17T08:58:18.260Z,10.00
2023-05-17T09:00:50.164Z,11.88
2023-05-17T09:03:24.067Z,9.63
2023-05-17T09:05:53.604Z,9.23
2023-05-17T09:08:30.634Z,10.15
2023-05-17T09:11:02.818Z,12.25
2023-05-17T09:13:36.090Z,13.08
2023-05-17T09:16:06.260Z,14.65
2023-05-17T09:18:35.082Z,17.67
2023-05-17T09:21:05.017Z,14.68
2023-05-17T09:23:36.964Z,10.68
2023-05-17T09:26:07.934Z,11.17
2023-05-17T09:28:45.802Z,15.08
2023-05-17T09:31:17.204Z,13.85
2023-05-17T09:33:47.496Z,10.05
2023-05-17T09:36:41.344Z,10.68
2023-05-17T09:39:17.753Z,13.45
2023-05-17T09:41:50.576Z,7.55
2023-05-17T09:44:19.327Z,8.93
2023-05-17T09:46:49.108Z,9.68
2023-05-17T09:49:19.298Z,10.35
2023-05-17T09:51:50.520Z,6.67
2023-05-17T09:54:23.094Z,6.05
2023-05-17T09:56:56.199Z,5.12
2023-05-17T09:59:28.530Z,9.30
2023-05-17T10:02:03.300Z,10.05
2023-05-17T10:04:34.516Z,13.30
2023-05-17T10:07:03.396Z,11.95
2023-05-17T10:09:35.011Z,10.38
2023-05-17T10:12:08.478Z,7.67
2023-05-17T10:14:46.391Z,11.53
2023-05-17T10:17:16.647Z,9.33
2023-05-17T10:19:49.646Z,11.48
2023-05-17T10:22:23.932Z,14.58
2023-05-17T10:24:54.650Z,10.30
2023-05-17T10:27:24.934Z,5.40
2023-05-17T10:29:58.133Z,9.03
2023-05-17T10:32:32.634Z,9.83
2023-05-17T10:35:11.103Z,10.88
2023-05-17T10:37:36.513Z,10.40
2023-05-17T10:40:05.643Z,8.23
2023-05-17T10:42:36.161Z,9.05
2023-05-17T10:45:06.439Z,8.55
2023-05-17T10:47:35.979Z,9.65
2023-05-17T10:52:52.243Z,8.98
2023-05-17T10:55:27.839Z,9.70
2023-05-17T10:58:17.499Z,8.45
2023-05-17T11:00:56.594Z,10.35
2023-05-17T11:03:50.976Z,6.03
2023-05-17T11:13:04.634Z,11.68
2023-05-17T11:15:44.784Z,4.50
2023-05-17T11:24:42.267Z,5.50
2023-05-17T11:30:05.608Z,12.80
2023-05-17T11:36:36.940Z,7.22
2023-05-17T11:45:45.930Z,10.90
2023-05-17T11:48:15.569Z,9.90
2023-05-17T11:50:45.843Z,9.13
2023-05-17T11:53:15.019Z,10.15
2023-05-17T11:55:48.792Z,10.78
2023-05-17T11:58:24.167Z,8.70
2023-05-17T12:00:58.684Z,10.35
2023-05-17T12:03:32.265Z,7.35
2023-05-17T12:06:13.220Z,10.48
2023-05-17T12:08:48.240Z,7.35
2023-05-17T12:11:18.015Z,8.05
2023-05-17T12:13:48.849Z,5.83
2023-05-17T12:16:20.011Z,7.67
2023-05-17T12:18:51.340Z,8.18
2023-05-17T12:21:21.338Z,7.70
2023-05-17T12:23:52.540Z,8.68
2023-05-17T12:26:23.533Z,6.37
2023-05-17T12:29:00.350Z,14.33
2023-05-17T12:31:41.184Z,7.35
2023-05-17T12:34:13.406Z,7.58
2023-05-17T12:36:42.619Z,8.65
2023-05-17T12:39:13.656Z,6.33
2023-05-17T12:41:43.802Z,5.95
2023-05-17T12:44:16.534Z,11.63
2023-05-17T12:46:47.633Z,11.28
2023-05-17T12:49:17.741Z,9.13
2023-05-17T12:51:47.576Z,8.10
2023-05-17T12:54:27.821Z,11.78
2023-05-17T12:56:57.237Z,6.55
2023-05-17T12:59:26.374Z,6.70
2023-05-17T13:01:58.792Z,6.25
2023-05-17T13:04:34.798Z,8.90
2023-05-17T13:07:05.775Z,7.97
2023-05-17T13:09:37.491Z,7.55
2023-05-17T13:12:09.202Z,9.40
2023-05-17T13:14:46.972Z,6.80
2023-05-17T13:17:21.839Z,5.83
2023-05-17T13:19:50.845Z,7.90
2023-05-17T13:22:19.680Z,7.10
2023-05-17T13:24:48.300Z,9.68
2023-05-17T13:27:18.227Z,8.10
2023-05-17T13:29:47.022Z,9.45
2023-05-17T13:32:16.020Z,5.40
2023-05-17T13:34:44.622Z,6.80
2023-05-17T13:37:13.305Z,6.50
2023-05-17T13:39:42.778Z,6.85
2023-05-17T13:42:13.173Z,6.17
2023-05-17T13:44:41.870Z,10.78
2023-05-17T13:47:10.572Z,5.97
2023-05-17T13:49:39.297Z,7.62
2023-05-17T13:52:13.194Z,5.53
2023-05-17T13:54:41.824Z,5.33
2023-05-17T13:57:10.619Z,4.90
2023-05-17T13:59:39.316Z,11.65
2023-05-17T14:02:09.192Z,4.30
2023-05-17T14:04:37.986Z,7.83
2023-05-17T14:07:06.623Z,8.13
2023-05-17T14:09:36.784Z,9.08
2023-05-17T14:12:06.059Z,12.47
2023-05-17T14:14:34.700Z,4.65
2023-05-17T14:17:05.158Z,6.17
2023-05-17T14:19:33.920Z,4.70
2023-05-17T14:22:02.590Z,4.40
2023-05-17T14:24:31.377Z,7.37
2023-05-17T14:27:00.183Z,4.87
2023-05-17T14:29:30.234Z,9.55
2023-05-17T14:31:58.882Z,6.60
2023-05-17T14:34:27.670Z,7.55
2023-05-17T14:36:56.957Z,7.87
2023-05-17T14:39:25.608Z,8.10
2023-05-17T14:41:55.614Z,27.77
2023-05-17T14:44:24.337Z,5.58
2023-05-17T14:46:52.971Z,25.85
2023-05-17T14:49:21.922Z,25.43
2023-05-17T14:51:51.050Z,15.30
2023-05-17T14:54:20.218Z,10.43
2023-05-17T14:56:49.154Z,10.88
2023-05-17T14:59:17.970Z,6.25
2023-05-17T15:01:46.585Z,6.45
2023-05-17T15:04:15.611Z,8.90
2023-05-17T15:06:44.595Z,6.62
2023-05-17T15:09:14.251Z,6.25
2023-05-17T15:11:43.072Z,9.28
2023-05-17T15:14:13.197Z,8.55
2023-05-17T15:16:42.265Z,5.12
2023-05-17T15:19:11.214Z,8.33
2023-05-17T15:21:39.941Z,5.62
2023-05-17T15:24:09.430Z,8.18
2023-05-17T15:26:39.059Z,5.20
2023-05-17T15:29:07.776Z,3.87
2023-05-17T15:31:36.539Z,6.00
2023-05-17T15:34:05.222Z,5.65
2023-05-17T15:36:34.458Z,6.58
2023-05-17T15:39:03.741Z,8.10
2023-05-17T15:41:34.660Z,7.95
2023-05-17T15:44:05.206Z,7.97
2023-05-17T15:46:33.942Z,7.87
2023-05-17T15:49:02.605Z,5.05
2023-05-17T15:51:31.336Z,7.85
2023-05-17T15:54:00.162Z,6.55
2023-05-17T15:56:32.067Z,6.22
2023-05-17T15:59:02.679Z,4.03
2023-05-17T16:01:31.453Z,5.50
2023-05-17T16:04:02.011Z,4.50
2023-05-17T16:06:32.667Z,6.58
2023-05-17T16:09:01.778Z,5.53
2023-05-17T16:11:37.941Z,8.48
2023-05-17T16:14:04.330Z,6.25
2023-05-17T16:16:38.940Z,6.28
2023-05-17T16:19:09.368Z,4.92
2023-05-17T16:21:42.134Z,6.10
2023-05-17T16:26:42.462Z,7.55
2023-05-17T16:29:13.209Z,6.50
2023-05-17T16:31:50.501Z,10.08
2023-05-17T16:34:36.005Z,6.87
2023-05-17T16:37:02.617Z,5.28
2023-05-17T16:39:31.961Z,6.22
2023-05-17T16:42:00.855Z,5.42
2023-05-17T16:44:29.987Z,6.15
2023-05-17T16:47:01.803Z,8.20
2023-05-17T16:49:33.008Z,9.37
2023-05-17T16:52:03.570Z,8.00
2023-05-17T16:54:40.133Z,8.18
2023-05-17T16:57:09.257Z,6.42
2023-05-17T16:59:40.166Z,10.95
2023-05-17T17:02:11.040Z,11.35
2023-05-17T17:04:39.949Z,8.40
2023-05-17T17:07:08.889Z,8.83
2023-05-17T17:09:40.790Z,17.17
2023-05-17T17:12:24.544Z,6.47
2023-05-17T17:14:47.779Z,8.38
2023-05-17T17:17:18.429Z,7.33
2023-05-17T17:19:47.581Z,8.25
2023-05-17T17:22:16.658Z,6.53
2023-05-17T17:24:45.332Z,9.05
2023-05-17T17:27:13.964Z,8.83
2023-05-17T17:29:42.663Z,7.62
2023-05-17T17:32:11.538Z,6.55
2023-05-17T17:34:42.818Z,7.35
2023-05-17T17:37:11.522Z,11.45
2023-05-17T17:39:42.018Z,6.60
2023-05-17T17:42:11.188Z,8.75
2023-05-17T17:44:59.194Z,9.35
2023-05-17T17:47:27.831Z,6.80
2023-05-17T17:49:56.504Z,6.72
2023-05-17T17:52:25.213Z,7.83
2023-05-17T17:54:53.796Z,4.75
2023-05-17T17:57:22.892Z,8.78
2023-05-17T17:59:51.676Z,6.97
2023-05-17T18:02:20.452Z,10.78
2023-05-17T18:04:49.121Z,7.80
2023-05-17T18:07:18.373Z,13.43
2023-05-17T18:09:47.178Z,9.08
2023-05-17T18:12:15.989Z,8.65
2023-05-17T18:14:44.603Z,9.50
2023-05-17T18:17:13.210Z,10.50
2023-05-17T18:19:41.849Z,9.23
2023-05-17T18:22:10.690Z,11.50
2023-05-17T18:24:39.339Z,8.78
2023-05-17T18:27:09.619Z,9.58
2023-05-17T18:29:38.247Z,10.23
2023-05-17T18:32:08.174Z,7.65
2023-05-17T18:34:37.027Z,4.87
2023-05-17T18:37:05.944Z,15.60
2023-05-17T18:39:34.860Z,12.33
2023-05-17T18:42:03.949Z,9.63
2023-05-17T18:44:32.587Z,7.45
2023-05-17T18:47:01.316Z,9.13
2023-05-17T18:49:29.921Z,10.95
2023-05-17T18:51:58.567Z,13.03
2023-05-17T18:54:27.276Z,10.03
2023-05-17T18:56:55.975Z,9.88
2023-05-17T18:59:26.178Z,8.60
2023-05-17T19:01:54.921Z,9.80
2023-05-17T19:04:23.685Z,7.65
2023-05-17T19:06:52.333Z,8.75
2023-05-17T19:09:20.995Z,10.82
2023-05-17T19:11:49.689Z,11.57
2023-05-17T19:14:18.352Z,12.60
2023-05-17T19:16:47.007Z,7.72
2023-05-17T19:19:15.944Z,13.55
2023-05-17T19:21:44.568Z,5.33
2023-05-17T19:24:13.255Z,5.12
2023-05-17T19:26:42.043Z,9.98
2023-05-17T19:29:10.667Z,9.45
2023-05-17T19:31:39.360Z,8.43
2023-05-17T19:34:08.029Z,10.23
2023-05-17T19:36:36.667Z,8.63
2023-05-17T19:39:05.377Z,9.78
2023-05-17T19:41:34.027Z,8.00
2023-05-17T19:44:02.745Z,10.03
2023-05-17T19:46:31.432Z,9.00
2023-05-17T19:49:00.135Z,7.40
2023-05-17T19:51:28.748Z,6.55
2023-05-17T19:53:57.391Z,15.03
2023-05-17T19:56:26.081Z,11.03
2023-05-17T19:58:54.837Z,9.83
2023-05-17T20:01:23.528Z,8.23
2023-05-17T20:03:52.353Z,8.45
2023-05-17T20:06:21.099Z,9.90
2023-05-17T20:08:49.712Z,7.10
2023-05-17T20:11:18.374Z,11.75
2023-05-17T20:13:46.999Z,9.85
2023-05-17T20:16:15.706Z,11.40
2023-05-17T20:18:45.507Z,9.80
2023-05-17T20:21:17.240Z,8.65
2023-05-17T20:23:46.354Z,16.05
2023-05-17T20:26:19.143Z,9.43
2023-05-17T20:28:47.803Z,8.40
2023-05-17T20:31:16.542Z,6.95
2023-05-17T20:33:45.444Z,17.30
2023-05-17T20:36:14.741Z,7.87
2023-05-17T20:38:44.128Z,9.00
2023-05-17T20:41:15.275Z,7.22
2023-05-17T20:43:49.631Z,7.95
2023-05-17T20:46:18.653Z,7.28
2023-05-17T20:48:48.331Z,9.68
2023-05-17T20:51:18.010Z,9.98
2023-05-17T20:53:46.850Z,9.70
2023-05-17T20:56:16.026Z,8.73
2023-05-17T20:58:44.658Z,8.00
2023-05-17T21:01:13.790Z,10.45
2023-05-17T21:03:43.182Z,10.43
2023-05-17T21:06:12.986Z,8.78
2023-05-17T21:08:42.797Z,10.10
2023-05-17T21:11:13.089Z,7.15
2023-05-17T21:13:41.707Z,8.75
2023-05-17T21:16:10.409Z,14.60
2023-05-17T21:18:41.029Z,13.75
2023-05-17T21:21:09.843Z,10.68
2023-05-17T21:23:38.607Z,7.80
2023-05-17T21:26:07.872Z,10.65
2023-05-17T21:28:38.571Z,7.83
2023-05-17T21:31:07.328Z,10.90
2023-05-17T21:33:35.946Z,5.75
2023-05-17T21:36:04.932Z,8.00
2023-05-17T21:38:33.545Z,6.47
2023-05-17T21:41:02.286Z,7.47
2023-05-17T21:43:30.954Z,9.30
2023-05-17T21:45:59.577Z,7.65
2023-05-17T21:48:28.224Z,10.70
2023-05-17T21:50:56.983Z,4.72
2023-05-17T21:53:25.630Z,5.08
2023-05-17T21:56:02.131Z,9.20
2023-05-17T21:58:24.500Z,8.48
2023-05-17T22:00:53.200Z,10.60
2023-05-17T22:03:22.268Z,12.40
2023-05-17T22:05:52.333Z,6.75
2023-05-17T22:08:21.037Z,5.35
2023-05-17T22:10:50.193Z,4.12
2023-05-17T22:13:19.194Z,8.70
2023-05-17T22:15:48.804Z,10.50
2023-05-17T22:18:19.189Z,8.50
2023-05-17T22:20:49.491Z,9.13
2023-05-17T22:23:18.293Z,6.47
2023-05-17T22:25:47.188Z,8.45
2023-05-17T22:28:16.068Z,10.53
2023-05-17T22:30:48.719Z,9.33
2023-05-17T22:35:46.542Z,4.85
2023-05-17T22:38:15.880Z,5.20
2023-05-17T22:40:44.491Z,10.48
2023-05-17T22:43:14.000Z,6.87
2023-05-17T22:45:42.670Z,6.00
2023-05-17T22:48:12.966Z,10.10
2023-05-17T22:50:41.844Z,5.80
2023-05-17T22:53:12.110Z,9.85
2023-05-17T22:55:40.921Z,8.45
2023-05-17T22:58:09.570Z,12.10
2023-05-17T23:00:38.204Z,11.28
2023-05-17T23:03:06.891Z,7.55
2023-05-17T23:05:36.824Z,6.45
2023-05-17T23:08:07.789Z,10.60
2023-05-17T23:10:37.787Z,6.60
2023-05-17T23:13:06.928Z,9.10
2023-05-17T23:15:37.157Z,7.80
2023-05-17T23:18:05.885Z,9.55
2023-05-17T23:20:35.080Z,8.15
2023-05-17T23:23:04.086Z,6.78
2023-05-17T23:25:32.773Z,6.85
2023-05-17T23:28:03.106Z,7.40
2023-05-17T23:30:32.479Z,6.53
2023-05-17T23:33:03.103Z,8.00
2023-05-17T23:35:31.857Z,13.32
2023-05-17T23:38:00.927Z,5.83
2023-05-17T23:40:30.623Z,9.53
2023-05-17T23:42:59.256Z,4.22
2023-05-17T23:45:28.135Z,13.58
2023-05-17T23:47:58.793Z,10.10
2023-05-17T23:50:27.762Z,6.83
2023-05-17T23:52:56.411Z,7.95
2023-05-17T23:55:46.055Z,3.75
2023-05-17T23:58:14.693Z,7.35
